createdAt,value
2022-12-14T00:01:49.577Z,8.36
2022-12-14T00:04:17.141Z,7.86
2022-12-14T00:06:44.157Z,7.55
2022-12-14T00:09:11.221Z,7.24
2022-12-14T00:11:38.282Z,6.98
2022-12-14T00:14:05.768Z,6.94
2022-12-14T00:16:34.767Z,6.87
2022-12-14T00:19:02.472Z,6.83
2022-12-14T00:21:29.583Z,6.87
2022-12-14T00:23:58.757Z,6.87
2022-12-14T00:26:28.278Z,6.88
2022-12-14T00:28:56.185Z,6.86
2022-12-14T00:31:24.527Z,6.86
2022-12-14T00:33:52.369Z,6.87
2022-12-14T00:36:20.238Z,6.89
2022-12-14T00:38:47.323Z,6.90
2022-12-14T00:41:14.240Z,6.86
2022-12-14T00:43:41.577Z,6.90
2022-12-14T00:46:08.719Z,6.90
2022-12-14T00:48:36.237Z,6.90
2022-12-14T00:51:03.650Z,6.91
2022-12-14T00:53:30.774Z,6.87
2022-12-14T00:55:58.070Z,6.85
2022-12-14T00:58:25.758Z,6.86
2022-12-14T01:01:01.305Z,6.82
2022-12-14T01:03:28.716Z,6.84
2022-12-14T01:05:56.077Z,6.86
2022-12-14T01:08:23.750Z,6.93
2022-12-14T01:10:51.199Z,6.98
2022-12-14T01:13:18.467Z,6.94
2022-12-14T01:15:45.366Z,6.93
2022-12-14T01:18:12.412Z,6.95
2022-12-14T01:20:39.230Z,6.93
2022-12-14T01:23:06.132Z,6.98
2022-12-14T01:25:33.082Z,7.03
2022-12-14T01:28:00.227Z,7.10
2022-12-14T01:30:27.330Z,7.15
2022-12-14T01:32:54.350Z,7.14
2022-12-14T01:35:21.124Z,7.08
2022-12-14T01:37:49.092Z,7.06
2022-12-14T01:40:16.875Z,7.14
2022-12-14T01:42:44.006Z,7.22
2022-12-14T01:45:20.138Z,7.37
2022-12-14T01:48:01.162Z,7.52
2022-12-14T01:50:39.952Z,7.52
2022-12-14T01:53:12.554Z,7.57
2022-12-14T01:55:49.123Z,7.59
2022-12-14T01:58:21.269Z,7.58
2022-12-14T02:00:50.727Z,7.63
2022-12-14T02:03:25.764Z,7.73
2022-12-14T02:06:01.643Z,7.79
2022-12-14T02:08:29.761Z,7.59
2022-12-14T02:10:57.787Z,7.43
2022-12-14T02:13:29.754Z,7.20
2022-12-14T02:15:57.464Z,7.04
2022-12-14T02:18:27.948Z,6.95
2022-12-14T02:21:39.352Z,6.87
2022-12-14T02:24:28.061Z,6.76
2022-12-14T02:27:09.563Z,6.78
2022-12-14T02:29:55.134Z,6.80
2022-12-14T02:32:35.758Z,6.74
2022-12-14T02:35:38.063Z,6.76
2022-12-14T02:38:07.991Z,6.70
2022-12-14T02:41:09.766Z,6.71
2022-12-14T02:43:51.819Z,6.83
2022-12-14T02:46:29.743Z,6.90
2022-12-14T02:49:06.817Z,6.96
2022-12-14T02:51:52.848Z,7.05
2022-12-14T02:54:38.625Z,7.04
2022-12-14T02:57:23.147Z,6.98
2022-12-14T02:59:56.725Z,6.80
2022-12-14T03:02:25.494Z,6.73
2022-12-14T03:04:52.551Z,6.69
2022-12-14T03:07:34.461Z,6.73
2022-12-14T03:10:09.687Z,6.72
2022-12-14T03:12:40.669Z,6.68
2022-12-14T03:15:11.365Z,6.66
2022-12-14T03:17:40.513Z,6.61
2022-12-14T03:20:18.507Z,6.58
2022-12-14T03:23:03.552Z,6.61
2022-12-14T03:25:39.216Z,6.65
2022-12-14T03:28:13.017Z,6.67
2022-12-14T03:31:00.001Z,6.67
2022-12-14T03:33:30.282Z,6.69
2022-12-14T03:36:01.078Z,6.67
2022-12-14T03:38:36.047Z,6.68
2022-12-14T03:41:48.807Z,6.65
2022-12-14T03:44:15.961Z,6.69
2022-12-14T03:47:04.114Z,6.71
2022-12-14T03:49:37.555Z,6.69
2022-12-14T03:52:37.321Z,6.66
2022-12-14T03:55:31.305Z,6.70
2022-12-14T03:58:18.919Z,6.64
2022-12-14T04:00:55.525Z,6.64
2022-12-14T04:03:33.472Z,6.64
2022-12-14T04:06:21.000Z,6.60
2022-12-14T04:09:00.597Z,6.58
2022-12-14T04:11:34.259Z,6.64
2022-12-14T04:14:18.598Z,6.61
2022-12-14T04:16:48.277Z,6.60
2022-12-14T04:19:34.130Z,6.57
2022-12-14T04:22:18.762Z,6.65
2022-12-14T04:25:02.191Z,6.66
2022-12-14T04:27:29.038Z,6.66
2022-12-14T04:29:58.958Z,6.62
2022-12-14T04:32:42.964Z,6.65
2022-12-14T04:35:18.353Z,6.63
2022-12-14T04:37:51.352Z,6.66
2022-12-14T04:40:27.451Z,6.66
2022-12-14T04:42:59.686Z,6.69
2022-12-14T04:45:35.102Z,6.80
2022-12-14T04:48:26.741Z,6.93
2022-12-14T04:51:01.621Z,6.94
2022-12-14T04:53:34.960Z,6.87
2022-12-14T04:56:11.817Z,6.84
2022-12-14T04:58:43.910Z,6.73
2022-12-14T05:01:31.982Z,6.71
2022-12-14T05:04:14.518Z,6.71
2022-12-14T05:07:02.872Z,6.68
2022-12-14T05:09:50.830Z,6.76
2022-12-14T05:12:27.490Z,6.81
2022-12-14T05:15:12.976Z,6.85
2022-12-14T05:17:41.915Z,6.86
2022-12-14T05:20:21.475Z,6.80
2022-12-14T05:22:48.985Z,6.87
2022-12-14T05:25:17.121Z,7.00
2022-12-14T05:27:44.278Z,7.03
2022-12-14T05:30:12.309Z,7.02
2022-12-14T05:32:39.853Z,7.11
2022-12-14T05:35:07.731Z,7.01
2022-12-14T05:37:34.991Z,7.00
2022-12-14T05:40:02.172Z,7.03
2022-12-14T05:42:29.100Z,7.02
2022-12-14T05:44:56.086Z,7.00
2022-12-14T05:47:23.602Z,7.08
2022-12-14T05:49:50.647Z,7.15
2022-12-14T05:52:17.728Z,7.24
2022-12-14T05:54:45.060Z,7.19
2022-12-14T05:57:12.534Z,7.06
2022-12-14T05:59:39.491Z,7.03
2022-12-14T06:02:06.457Z,6.95
2022-12-14T06:04:33.907Z,6.95
2022-12-14T06:07:01.021Z,7.02
2022-12-14T06:09:27.856Z,7.01
2022-12-14T06:11:54.816Z,7.01
2022-12-14T06:14:21.831Z,7.04
2022-12-14T06:16:51.887Z,7.01
2022-12-14T06:19:18.975Z,7.10
2022-12-14T06:21:46.065Z,7.13
2022-12-14T06:24:14.413Z,7.17
2022-12-14T06:26:42.120Z,7.10
2022-12-14T06:29:14.750Z,7.01
2022-12-14T06:31:41.996Z,7.03
2022-12-14T06:34:10.198Z,6.99
2022-12-14T06:36:39.794Z,6.93
2022-12-14T06:39:14.010Z,6.86
2022-12-14T06:41:41.638Z,6.80
2022-12-14T06:44:11.966Z,6.76
2022-12-14T06:46:39.490Z,6.75
2022-12-14T06:49:07.172Z,6.70
2022-12-14T06:51:39.804Z,6.69
2022-12-14T06:54:07.485Z,6.76
2022-12-14T06:56:34.578Z,6.78
2022-12-14T06:59:01.777Z,6.85
2022-12-14T07:01:28.862Z,6.82
2022-12-14T07:03:57.893Z,6.90
2022-12-14T07:06:26.974Z,6.95
2022-12-14T07:08:55.971Z,7.02
2022-12-14T07:11:22.942Z,7.08
2022-12-14T07:13:50.020Z,7.15
2022-12-14T07:16:20.636Z,7.24
2022-12-14T07:18:48.608Z,7.28
2022-12-14T07:21:18.345Z,7.30
2022-12-14T07:23:47.520Z,7.24
2022-12-14T07:26:21.009Z,7.32
2022-12-14T07:28:48.023Z,7.40
2022-12-14T07:31:17.293Z,7.41
2022-12-14T07:33:44.767Z,7.34
2022-12-14T07:36:20.115Z,7.27
2022-12-14T07:38:49.203Z,7.14
2022-12-14T07:41:25.467Z,7.22
2022-12-14T07:43:55.067Z,7.24
2022-12-14T07:46:25.456Z,7.26
2022-12-14T07:48:54.561Z,7.41
2022-12-14T07:51:24.497Z,7.43
2022-12-14T07:53:52.175Z,7.40
2022-12-14T07:56:24.416Z,7.40
2022-12-14T07:58:51.785Z,7.37
2022-12-14T08:01:30.638Z,7.28
2022-12-14T08:04:00.874Z,7.36
2022-12-14T08:06:29.729Z,7.29
2022-12-14T08:08:57.306Z,7.31
2022-12-14T08:11:25.157Z,7.33
2022-12-14T08:13:56.538Z,7.30
2022-12-14T08:16:24.528Z,7.41
2022-12-14T08:18:54.197Z,7.46
2022-12-14T08:21:22.588Z,7.42
2022-12-14T08:23:50.556Z,7.51
2022-12-14T08:26:18.730Z,7.39
2022-12-14T08:28:47.667Z,7.32
2022-12-14T08:31:21.188Z,7.25
2022-12-14T08:33:49.047Z,7.28
2022-12-14T08:36:22.551Z,7.36
2022-12-14T08:39:00.561Z,7.31
2022-12-14T08:41:28.975Z,7.41
2022-12-14T08:44:00.869Z,7.36
2022-12-14T08:46:30.127Z,7.34
2022-12-14T08:48:58.634Z,7.38
2022-12-14T08:51:27.814Z,7.44
2022-12-14T08:53:56.017Z,7.34
2022-12-14T08:56:26.229Z,7.36
2022-12-14T08:58:53.711Z,7.34
2022-12-14T09:01:26.991Z,7.29
2022-12-14T09:04:03.761Z,7.35
2022-12-14T09:06:30.906Z,7.33
2022-12-14T09:08:58.701Z,7.35
2022-12-14T09:11:25.609Z,7.36
2022-12-14T09:13:56.321Z,7.36
2022-12-14T09:16:24.738Z,7.49
2022-12-14T09:18:52.027Z,7.61
2022-12-14T09:21:18.847Z,7.64
2022-12-14T09:23:46.464Z,7.75
2022-12-14T09:26:23.267Z,7.89
2022-12-14T09:28:53.324Z,7.92
2022-12-14T09:31:23.356Z,7.76
2022-12-14T09:33:50.566Z,7.76
2022-12-14T09:36:20.159Z,7.89
2022-12-14T09:38:51.586Z,7.86
2022-12-14T09:41:34.521Z,7.84
2022-12-14T09:44:22.881Z,7.76
2022-12-14T09:47:24.804Z,7.77
2022-12-14T09:49:55.920Z,7.92
2022-12-14T09:52:44.806Z,8.09
2022-12-14T09:55:20.883Z,8.16
2022-12-14T09:57:52.643Z,8.06
2022-12-14T10:00:20.537Z,8.11
2022-12-14T10:03:00.270Z,8.02
2022-12-14T10:06:02.409Z,7.96
2022-12-14T10:08:45.319Z,7.97
2022-12-14T10:11:40.080Z,7.92
2022-12-14T10:14:45.088Z,7.86
2022-12-14T10:17:42.243Z,7.79
2022-12-14T10:20:24.718Z,7.93
2022-12-14T10:22:52.801Z,8.11
2022-12-14T10:25:32.732Z,8.18
2022-12-14T10:28:11.497Z,8.22
2022-12-14T10:30:41.870Z,8.16
2022-12-14T10:33:17.530Z,8.15
2022-12-14T10:35:50.498Z,8.18
2022-12-14T10:38:37.180Z,8.26
2022-12-14T10:41:14.654Z,8.36
2022-12-14T10:44:03.956Z,8.32
2022-12-14T10:46:51.944Z,8.24
2022-12-14T10:49:30.432Z,7.94
2022-12-14T10:52:12.903Z,7.85
2022-12-14T10:54:52.597Z,7.95
2022-12-14T10:57:21.342Z,7.94
2022-12-14T11:00:05.780Z,7.99
2022-12-14T11:02:40.708Z,8.00
2022-12-14T11:05:19.893Z,8.08
2022-12-14T11:07:46.794Z,8.06
2022-12-14T11:10:21.563Z,8.23
2022-12-14T11:13:02.173Z,8.35
2022-12-14T11:15:32.519Z,8.54
2022-12-14T11:18:17.944Z,8.76
2022-12-14T11:20:53.967Z,8.23
2022-12-14T11:23:26.028Z,7.95
2022-12-14T11:26:02.909Z,7.83
2022-12-14T11:28:41.584Z,7.73
2022-12-14T11:31:13.232Z,7.67
2022-12-14T11:33:50.169Z,7.67
2022-12-14T11:36:24.907Z,7.67
2022-12-14T11:39:19.305Z,7.61
2022-12-14T11:42:05.655Z,7.68
2022-12-14T11:44:37.546Z,7.79
2022-12-14T11:47:16.406Z,7.73
2022-12-14T11:49:49.971Z,7.64
2022-12-14T11:52:24.028Z,7.58
2022-12-14T11:54:54.303Z,7.61
2022-12-14T11:57:23.528Z,7.62
2022-12-14T12:00:01.745Z,7.64
2022-12-14T12:02:35.450Z,7.76
2022-12-14T12:05:18.342Z,7.93
2022-12-14T12:07:51.837Z,8.06
2022-12-14T12:10:28.584Z,8.06
2022-12-14T12:12:57.000Z,8.26
2022-12-14T12:15:38.622Z,8.47
2022-12-14T12:18:16.246Z,8.60
2022-12-14T12:21:13.012Z,8.65
2022-12-14T12:23:44.232Z,8.38
2022-12-14T12:26:26.112Z,8.53
2022-12-14T12:29:02.401Z,8.41
2022-12-14T12:31:37.994Z,8.12
2022-12-14T12:34:18.142Z,8.06
2022-12-14T12:37:17.088Z,8.05
2022-12-14T12:39:37.159Z,8.04
2022-12-14T12:42:55.418Z,8.04
2022-12-14T12:45:32.887Z,8.12
2022-12-14T12:48:08.029Z,8.23
2022-12-14T12:50:39.811Z,8.08
2022-12-14T12:53:27.322Z,7.89
2022-12-14T12:56:04.386Z,7.79
2022-12-14T12:58:35.077Z,7.88
2022-12-14T13:01:25.224Z,7.89
2022-12-14T13:03:57.832Z,7.94
2022-12-14T13:06:37.313Z,8.15
2022-12-14T13:09:33.555Z,7.90
2022-12-14T13:12:02.717Z,7.82
2022-12-14T13:14:50.020Z,7.87
2022-12-14T13:17:31.582Z,7.73
2022-12-14T13:20:01.023Z,7.61
2022-12-14T13:22:31.776Z,7.57
2022-12-14T13:25:08.074Z,7.61
2022-12-14T13:28:21.256Z,7.63
2022-12-14T13:31:07.124Z,7.65
2022-12-14T13:33:46.363Z,7.55
2022-12-14T13:37:03.037Z,7.39
2022-12-14T13:40:17.308Z,7.28
2022-12-14T13:43:02.104Z,7.23
2022-12-14T13:45:40.495Z,7.14
2022-12-14T13:48:18.657Z,7.10
2022-12-14T13:50:52.991Z,7.05
2022-12-14T13:53:41.479Z,7.03
2022-12-14T13:56:09.408Z,7.04
2022-12-14T13:58:42.303Z,7.03
2022-12-14T14:01:14.791Z,7.05
2022-12-14T14:03:46.355Z,7.07
2022-12-14T14:06:13.631Z,7.06
2022-12-14T14:08:48.345Z,7.10
2022-12-14T14:11:36.433Z,7.06
2022-12-14T14:14:42.318Z,7.02
2022-12-14T14:17:30.834Z,7.02
2022-12-14T14:19:59.693Z,7.08
2022-12-14T14:22:28.995Z,7.08
2022-12-14T14:25:09.473Z,7.30
2022-12-14T14:27:39.740Z,7.44
2022-12-14T14:30:52.258Z,7.40
2022-12-14T14:33:45.305Z,7.63
2022-12-14T14:36:33.973Z,7.55
2022-12-14T14:39:18.984Z,7.66
2022-12-14T14:41:53.364Z,7.67
2022-12-14T14:44:35.470Z,7.66
2022-12-14T14:47:07.575Z,7.64
2022-12-14T14:49:40.326Z,7.73
2022-12-14T14:52:38.754Z,7.76
2022-12-14T14:58:37.073Z,7.83
2022-12-14T15:01:04.397Z,7.88
2022-12-14T15:03:51.654Z,7.87
2022-12-14T15:06:26.313Z,7.89
2022-12-14T15:09:05.494Z,7.97
2022-12-14T15:11:48.800Z,8.06
2022-12-14T15:14:21.328Z,8.07
2022-12-14T15:16:48.419Z,8.13
2022-12-14T15:19:22.485Z,8.36
2022-12-14T15:21:52.416Z,8.22
2022-12-14T15:24:21.596Z,8.12
2022-12-14T15:26:48.767Z,8.16
2022-12-14T15:29:19.365Z,8.14
2022-12-14T15:31:46.876Z,8.07
2022-12-14T15:34:17.552Z,7.86
2022-12-14T15:36:45.341Z,7.94
2022-12-14T15:39:32.241Z,8.06
2022-12-14T15:42:09.894Z,8.15
2022-12-14T15:44:37.238Z,8.06
2022-12-14T15:47:04.522Z,7.96
2022-12-14T15:49:31.655Z,8.00
2022-12-14T15:51:59.119Z,7.95
2022-12-14T15:54:26.787Z,8.05
2022-12-14T15:57:00.760Z,8.03
2022-12-14T15:59:37.016Z,7.91
2022-12-14T16:02:09.514Z,7.80
2022-12-14T16:04:37.730Z,7.76
2022-12-14T16:07:14.230Z,7.73
2022-12-14T16:09:50.139Z,7.78
2022-12-14T16:12:46.658Z,7.74
2022-12-14T16:15:25.969Z,7.60
2022-12-14T16:18:01.409Z,7.65
2022-12-14T16:20:32.462Z,7.54
2022-12-14T16:23:16.363Z,7.39
2022-12-14T16:26:19.688Z,7.17
2022-12-14T16:28:49.829Z,7.16
2022-12-14T16:31:23.256Z,7.15
2022-12-14T16:34:14.236Z,7.18
2022-12-14T16:36:42.143Z,7.01
2022-12-14T16:39:23.361Z,6.91
2022-12-14T16:41:56.790Z,6.81
2022-12-14T16:44:35.463Z,6.70
2022-12-14T16:47:02.488Z,6.65
2022-12-14T16:49:35.377Z,6.52
2022-12-14T16:52:16.135Z,6.44
2022-12-14T16:54:43.708Z,6.40
2022-12-14T16:57:23.717Z,6.43
2022-12-14T17:00:00.358Z,6.48
2022-12-14T17:02:46.905Z,6.44
2022-12-14T17:05:21.277Z,6.42
2022-12-14T17:07:48.378Z,6.34
2022-12-14T17:10:20.387Z,6.32
2022-12-14T17:12:47.621Z,6.29
2022-12-14T17:15:20.131Z,6.17
2022-12-14T17:17:50.476Z,6.21
2022-12-14T17:20:26.451Z,6.26
2022-12-14T17:22:55.223Z,6.16
2022-12-14T17:25:22.588Z,6.09
2022-12-14T17:27:49.589Z,6.06
2022-12-14T17:30:19.945Z,5.91
2022-12-14T17:32:48.596Z,5.89
2022-12-14T17:35:28.896Z,5.88
2022-12-14T17:37:57.141Z,5.87
2022-12-14T17:40:24.474Z,5.85
2022-12-14T17:42:57.938Z,5.79
2022-12-14T17:45:28.370Z,5.86
2022-12-14T17:47:56.188Z,5.91
2022-12-14T17:50:24.200Z,5.96
2022-12-14T17:52:51.212Z,5.89
2022-12-14T17:55:24.436Z,5.95
2022-12-14T17:57:51.899Z,6.03
2022-12-14T18:00:22.610Z,5.92
2022-12-14T18:02:49.726Z,6.01
2022-12-14T18:05:21.514Z,5.95
2022-12-14T18:07:49.870Z,5.90
2022-12-14T18:10:18.256Z,5.81
2022-12-14T18:12:45.766Z,5.80
2022-12-14T18:15:17.483Z,5.75
2022-12-14T18:17:44.893Z,5.76
2022-12-14T18:20:20.158Z,5.75
2022-12-14T18:22:50.675Z,5.73
2022-12-14T18:25:29.719Z,5.84
2022-12-14T18:27:57.104Z,5.85
2022-12-14T18:30:24.318Z,5.88
2022-12-14T18:32:54.860Z,6.00
2022-12-14T18:35:24.843Z,6.03
2022-12-14T18:37:52.539Z,6.13
2022-12-14T18:40:29.818Z,6.16
2022-12-14T18:42:57.830Z,6.24
2022-12-14T18:45:28.763Z,6.34
2022-12-14T18:47:56.007Z,6.47
2022-12-14T18:50:24.307Z,6.41
2022-12-14T18:52:51.802Z,6.49
2022-12-14T18:55:22.096Z,6.57
2022-12-14T18:57:51.016Z,6.71
2022-12-14T19:00:20.955Z,6.76
2022-12-14T19:02:49.516Z,6.67
2022-12-14T19:05:24.283Z,6.70
2022-12-14T19:07:53.251Z,6.79
2022-12-14T19:10:26.052Z,6.72
2022-12-14T19:12:53.641Z,6.74
2022-12-14T19:15:24.682Z,6.68
2022-12-14T19:17:52.574Z,6.85
2022-12-14T19:20:20.316Z,6.88
2022-12-14T19:22:48.272Z,7.00
2022-12-14T19:25:17.425Z,7.09
2022-12-14T19:28:25.815Z,7.13
2022-12-14T19:30:32.331Z,7.11
2022-12-14T19:33:01.036Z,7.07
2022-12-14T19:35:29.926Z,6.95
2022-12-14T19:37:57.392Z,6.89
2022-12-14T19:40:24.585Z,6.88
2022-12-14T19:42:51.627Z,6.90
2022-12-14T19:45:18.703Z,6.83
2022-12-14T19:47:45.833Z,6.54
2022-12-14T19:50:15.121Z,6.57
2022-12-14T19:52:43.607Z,6.51
2022-12-14T19:55:11.668Z,6.63
2022-12-14T19:57:40.262Z,6.70
2022-12-14T20:00:09.066Z,6.76
2022-12-14T20:02:36.713Z,6.90
2022-12-14T20:05:05.030Z,6.83
2022-12-14T20:07:31.900Z,6.95
2022-12-14T20:10:00.465Z,6.95
2022-12-14T20:12:27.875Z,6.97
2022-12-14T20:14:57.110Z,6.86
2022-12-14T20:17:24.135Z,6.76
2022-12-14T20:19:52.036Z,6.84
2022-12-14T20:22:19.090Z,6.74
2022-12-14T20:24:46.162Z,6.82
2022-12-14T20:27:14.660Z,6.51
2022-12-14T20:29:42.387Z,6.42
2022-12-14T20:32:10.073Z,6.30
2022-12-14T20:34:40.266Z,6.23
2022-12-14T20:37:07.263Z,6.39
2022-12-14T20:39:34.946Z,6.49
2022-12-14T20:42:04.469Z,6.60
2022-12-14T20:44:32.934Z,6.55
2022-12-14T20:47:04.624Z,6.45
2022-12-14T20:49:31.685Z,6.24
2022-12-14T20:51:58.934Z,5.99
2022-12-14T20:54:27.445Z,6.04
2022-12-14T20:56:54.601Z,6.17
2022-12-14T20:59:21.744Z,6.20
2022-12-14T21:01:55.572Z,6.20
2022-12-14T21:04:23.101Z,6.18
2022-12-14T21:06:50.386Z,6.36
2022-12-14T21:09:17.369Z,6.31
2022-12-14T21:11:46.886Z,6.03
2022-12-14T21:14:17.570Z,5.87
2022-12-14T21:16:44.999Z,5.79
2022-12-14T21:19:13.099Z,6.01
2022-12-14T21:21:41.189Z,6.10
2022-12-14T21:24:10.062Z,6.24
2022-12-14T21:26:39.017Z,6.21
2022-12-14T21:29:08.061Z,6.04
2022-12-14T21:31:36.141Z,6.10
2022-12-14T21:34:03.105Z,6.29
2022-12-14T21:36:30.349Z,6.43
2022-12-14T21:38:57.458Z,6.48
2022-12-14T21:41:25.059Z,6.68
2022-12-14T21:43:53.471Z,6.79
2022-12-14T21:46:22.786Z,6.94
2022-12-14T21:48:51.487Z,7.11
2022-12-14T21:51:19.892Z,7.10
2022-12-14T21:53:55.459Z,7.08
2022-12-14T21:56:22.805Z,7.06
2022-12-14T21:58:53.984Z,6.92
2022-12-14T22:01:21.408Z,6.72
2022-12-14T22:03:52.295Z,6.60
2022-12-14T22:06:19.635Z,6.10
2022-12-14T22:08:46.721Z,5.85
2022-12-14T22:11:13.693Z,5.72
2022-12-14T22:13:43.198Z,5.66
2022-12-14T22:16:10.135Z,5.67
2022-12-14T22:18:37.109Z,5.60
2022-12-14T22:21:05.361Z,5.60
2022-12-14T22:23:34.802Z,5.67
2022-12-14T22:26:03.746Z,5.86
2022-12-14T22:28:30.765Z,5.90
2022-12-14T22:31:02.130Z,6.07
2022-12-14T22:33:30.617Z,6.10
2022-12-14T22:35:58.871Z,6.19
2022-12-14T22:38:26.980Z,6.11
2022-12-14T22:41:00.817Z,5.81
2022-12-14T22:43:30.689Z,5.91
2022-12-14T22:46:02.320Z,6.18
2022-12-14T22:48:32.942Z,5.92
2022-12-14T22:51:05.146Z,5.91
2022-12-14T22:53:32.366Z,5.96
2022-12-14T22:56:09.621Z,5.97
2022-12-14T22:58:39.221Z,5.49
2022-12-14T23:01:06.081Z,5.52
2022-12-14T23:03:33.522Z,5.71
2022-12-14T23:06:02.265Z,5.58
2022-12-14T23:08:29.375Z,5.79
2022-12-14T23:10:56.279Z,5.67
2022-12-14T23:13:29.643Z,5.68
2022-12-14T23:15:56.627Z,5.32
2022-12-14T23:18:23.823Z,5.20
2022-12-14T23:20:51.066Z,5.20
2022-12-14T23:23:18.005Z,5.31
2022-12-14T23:25:45.018Z,5.56
2022-12-14T23:28:12.414Z,5.73
2022-12-14T23:30:39.385Z,5.82
2022-12-14T23:33:06.204Z,6.15
2022-12-14T23:35:33.209Z,6.32
2022-12-14T23:38:05.224Z,6.48
2022-12-14T23:40:32.130Z,6.49
2022-12-14T23:43:14.794Z,6.48
2022-12-14T23:45:43.171Z,6.51
2022-12-14T23:48:10.062Z,6.54
2022-12-14T23:50:37.026Z,6.36
2022-12-14T23:53:08.607Z,6.30
2022-12-14T23:55:35.969Z,6.37
2022-12-14T23:58:03.066Z,6.43
